Time;durP1;ratioP1;P1;durP2;ratioP2;P2;SDS_P1;SDS_P2;PMS_P1;PMS_P2;Temp;Humidity;BMP_temperature;BMP_pressure;BME280_temperature;BME280_humidity;BME280_pressure;Samples;Min_cycle;Max_cycle;Signal;HPM_P1;HPM_P2
2023/10/15 00:01:57;;;;;;;2.23;2.13;;;;;;;;;;4994802;28;20244;-85
2023/10/15 00:04:31;;;;;;;7.37;2.40;;;;;;;;;;4988951;28;20224;-84
2023/10/15 00:07:05;;;;;;;2.53;2.40;;;;;;;;;;4986907;28;20579;-84
2023/10/15 00:09:33;;;;;;;2.50;2.37;;;;;;;;;;4993143;28;20261;-85
2023/10/15 00:12:04;;;;;;;5.87;2.00;;;;;;;;;;4994006;28;20654;-84
2023/10/15 00:14:37;;;;;;;2.57;2.40;;;;;;;;;;4994481;28;20231;-84
2023/10/15 00:17:05;;;;;;;2.23;2.13;;;;;;;;;;4993758;28;20712;-85
2023/10/15 00:19:35;;;;;;;2.23;2.13;;;;;;;;;;4994740;28;20198;-83
2023/10/15 00:22:07;;;;;;;4.20;2.53;;;;;;;;;;4993019;28;20658;-84
2023/10/15 00:24:35;;;;;;;4.50;2.33;;;;;;;;;;4993388;28;20769;-84
2023/10/15 00:27:10;;;;;;;2.60;1.87;;;;;;;;;;4995101;28;20214;-83
2023/10/15 00:29:39;;;;;;;2.90;2.67;;;;;;;;;;4994586;28;20214;-83
2023/10/15 00:32:08;;;;;;;2.60;2.40;;;;;;;;;;4993406;28;20690;-85
2023/10/15 00:34:39;;;;;;;2.30;2.00;;;;;;;;;;4994355;28;20211;-83
2023/10/15 00:37:13;;;;;;;2.57;2.37;;;;;;;;;;4993821;28;20289;-84
2023/10/15 00:39:43;;;;;;;2.43;2.17;;;;;;;;;;4994117;28;20207;-83
2023/10/15 00:42:11;;;;;;;2.47;2.37;;;;;;;;;;4994213;28;20649;-84
2023/10/15 00:44:41;;;;;;;5.97;2.57;;;;;;;;;;4994342;28;20266;-85
2023/10/15 00:47:15;;;;;;;3.80;2.73;;;;;;;;;;4993014;28;20206;-85
2023/10/15 00:49:45;;;;;;;2.77;2.50;;;;;;;;;;4993674;28;20658;-83
2023/10/15 00:52:15;;;;;;;4.40;2.57;;;;;;;;;;4993644;28;20206;-84
2023/10/15 00:54:45;;;;;;;4.90;1.80;;;;;;;;;;4993508;28;20194;-83
2023/10/15 00:59:58;;;;;;;4.00;2.10;;;;;;;;;;4993256;28;20222;-83
2023/10/15 01:02:28;;;;;;;5.63;4.07;;;;;;;;;;5005408;28;20329;-84
2023/10/15 01:05:00;;;;;;;9.00;4.13;;;;;;;;;;5013895;28;20257;-84
2023/10/15 01:07:43;;;;;;;5.77;2.50;;;;;;;;;;5013103;28;20268;-84
2023/10/15 01:10:26;;;;;;;2.70;2.50;;;;;;;;;;5007372;28;20646;-84
2023/10/15 01:13:10;;;;;;;4.63;2.40;;;;;;;;;;4993491;28;20281;-84
2023/10/15 01:15:42;;;;;;;2.83;2.63;;;;;;;;;;4992184;28;20209;-85
2023/10/15 01:18:10;;;;;;;2.57;2.13;;;;;;;;;;4993299;28;20316;-83
2023/10/15 01:20:44;;;;;;;3.20;2.27;;;;;;;;;;4993359;28;20696;-84
2023/10/15 01:23:28;;;;;;;2.10;2.00;;;;;;;;;;4993054;28;20248;-84
2023/10/15 01:25:59;;;;;;;2.80;2.60;;;;;;;;;;4993014;28;20201;-84
2023/10/15 01:28:36;;;;;;;4.13;2.47;;;;;;;;;;4994776;28;20197;-85
2023/10/15 01:31:06;;;;;;;5.07;2.63;;;;;;;;;;4992277;28;20197;-86
2023/10/15 01:33:46;;;;;;;2.20;2.10;;;;;;;;;;4993308;28;20256;-84
2023/10/15 01:36:18;;;;;;;6.93;2.77;;;;;;;;;;4992741;28;20200;-84
2023/10/15 01:38:50;;;;;;;4.47;2.90;;;;;;;;;;4992659;28;20508;-85
2023/10/15 01:41:25;;;;;;;2.27;2.17;;;;;;;;;;4993132;28;20215;-85
2023/10/15 01:43:53;;;;;;;2.70;2.27;;;;;;;;;;4993833;28;20232;-84
2023/10/15 01:46:40;;;;;;;3.17;2.50;;;;;;;;;;4992351;28;20201;-85
2023/10/15 01:49:15;;;;;;;3.33;2.30;;;;;;;;;;4993494;28;20269;-85
2023/10/15 01:51:47;;;;;;;2.33;2.13;;;;;;;;;;4992970;28;20233;-85
2023/10/15 01:54:16;;;;;;;2.57;2.37;;;;;;;;;;4994389;28;20284;-85
2023/10/15 01:56:48;;;;;;;2.30;2.10;;;;;;;;;;4994135;28;20235;-86
2023/10/15 01:59:16;;;;;;;12.93;2.80;;;;;;;;;;4998904;28;20206;-86
2023/10/15 02:01:50;;;;;;;2.67;2.47;;;;;;;;;;5014450;28;20238;-85
2023/10/15 02:04:21;;;;;;;6.40;3.13;;;;;;;;;;5015961;28;20263;-85
2023/10/15 02:06:53;;;;;;;6.93;3.20;;;;;;;;;;5016204;28;20189;-85
2023/10/15 02:09:23;;;;;;;7.03;3.43;;;;;;;;;;4995374;28;20198;-85
2023/10/15 02:11:55;;;;;;;4.40;3.23;;;;;;;;;;4973797;28;20216;-85
2023/10/15 02:14:28;;;;;;;3.70;2.97;;;;;;;;;;4974697;28;20186;-85
2023/10/15 02:17:00;;;;;;;3.27;2.97;;;;;;;;;;4973837;28;20202;-86
2023/10/15 02:19:34;;;;;;;3.00;2.37;;;;;;;;;;4973151;28;20252;-84
2023/10/15 02:22:04;;;;;;;4.17;2.83;;;;;;;;;;4971561;28;20598;-85
2023/10/15 02:24:36;;;;;;;11.03;3.37;;;;;;;;;;4981086;28;20260;-85
2023/10/15 02:27:06;;;;;;;5.67;2.80;;;;;;;;;;4991725;28;20235;-85
2023/10/15 02:29:41;;;;;;;4.87;3.27;;;;;;;;;;4990398;28;20217;-85
2023/10/15 02:32:21;;;;;;;3.40;3.13;;;;;;;;;;4992541;28;20229;-85
2023/10/15 02:34:51;;;;;;;4.30;2.80;;;;;;;;;;4992087;28;20205;-86
2023/10/15 02:37:23;;;;;;;5.43;3.03;;;;;;;;;;4991472;28;20201;-85
2023/10/15 02:39:56;;;;;;;5.97;3.00;;;;;;;;;;4992867;28;20212;-85
2023/10/15 02:42:33;;;;;;;2.87;2.60;;;;;;;;;;5002837;28;20197;-85
2023/10/15 02:45:06;;;;;;;2.97;2.17;;;;;;;;;;5005874;28;20699;-84
2023/10/15 02:47:41;;;;;;;8.13;3.13;;;;;;;;;;4992411;28;20201;-84
2023/10/15 02:50:16;;;;;;;3.17;2.63;;;;;;;;;;4991484;28;20392;-84
2023/10/15 02:52:45;;;;;;;3.20;2.90;;;;;;;;;;4991955;28;20294;-85
2023/10/15 02:55:14;;;;;;;3.70;2.50;;;;;;;;;;4992161;28;20252;-85
2023/10/15 02:57:45;;;;;;;2.47;2.37;;;;;;;;;;4992514;28;20225;-84
2023/10/15 03:00:18;;;;;;;3.73;2.97;;;;;;;;;;4991430;28;20211;-85
2023/10/15 03:02:50;;;;;;;2.97;2.77;;;;;;;;;;5006927;28;20232;-86
2023/10/15 03:05:18;;;;;;;2.97;2.63;;;;;;;;;;5010697;28;20273;-84
2023/10/15 03:07:49;;;;;;;2.80;2.57;;;;;;;;;;5011121;28;20228;-86
2023/10/15 03:10:21;;;;;;;2.90;2.70;;;;;;;;;;5011575;28;20217;-85
2023/10/15 03:12:54;;;;;;;4.23;3.23;;;;;;;;;;5011208;28;20725;-85
2023/10/15 03:15:25;;;;;;;2.60;2.50;;;;;;;;;;5011837;28;20299;-85
2023/10/15 03:17:56;;;;;;;4.33;3.13;;;;;;;;;;5011570;28;20200;-84
2023/10/15 03:20:35;;;;;;;3.03;2.83;;;;;;;;;;5010436;28;20295;-85
2023/10/15 03:23:16;;;;;;;2.87;2.57;;;;;;;;;;5011739;28;20199;-85
2023/10/15 03:25:48;;;;;;;3.57;3.27;;;;;;;;;;5010843;28;20207;-85
2023/10/15 03:28:18;;;;;;;2.77;2.57;;;;;;;;;;5011956;28;20208;-84
2023/10/15 03:30:54;;;;;;;3.20;2.23;;;;;;;;;;5011205;28;20757;-84
2023/10/15 03:33:30;;;;;;;3.00;2.80;;;;;;;;;;5010930;28;20216;-84
2023/10/15 03:36:03;;;;;;;3.83;3.53;;;;;;;;;;5010367;28;20254;-85
2023/10/15 03:38:34;;;;;;;8.10;2.87;;;;;;;;;;5011158;28;20204;-85
2023/10/15 03:41:21;;;;;;;3.23;2.93;;;;;;;;;;5023242;28;20268;-84
2023/10/15 03:43:53;;;;;;;6.20;3.67;;;;;;;;;;5025582;28;20282;-83
2023/10/15 03:46:25;;;;;;;7.87;3.03;;;;;;;;;;5014851;28;20642;-84
2023/10/15 03:48:54;;;;;;;4.60;2.73;;;;;;;;;;5011683;28;20232;-85
2023/10/15 03:51:24;;;;;;;4.67;3.27;;;;;;;;;;5010429;28;20203;-85
2023/10/15 03:53:58;;;;;;;5.53;3.20;;;;;;;;;;5010729;28;20224;-85
2023/10/15 03:56:28;;;;;;;18.90;4.80;;;;;;;;;;5010984;28;20200;-85
2023/10/15 03:58:59;;;;;;;13.70;4.30;;;;;;;;;;5010313;28;20254;-85
2023/10/15 04:01:30;;;;;;;12.93;4.23;;;;;;;;;;5011052;28;20270;-83
2023/10/15 04:04:02;;;;;;;10.67;3.37;;;;;;;;;;5011357;28;20232;-84
2023/10/15 04:06:34;;;;;;;8.93;3.20;;;;;;;;;;5008617;28;20658;-84
2023/10/15 04:09:10;;;;;;;14.80;3.40;;;;;;;;;;5009446;28;20232;-83
2023/10/15 04:11:43;;;;;;;5.77;3.27;;;;;;;;;;5009556;28;20204;-84
2023/10/15 04:14:17;;;;;;;3.20;2.60;;;;;;;;;;5009965;28;20205;-85
2023/10/15 04:16:47;;;;;;;3.80;3.33;;;;;;;;;;5009946;28;20319;-84
2023/10/15 04:19:17;;;;;;;9.40;3.20;;;;;;;;;;5010519;28;20201;-84
2023/10/15 04:21:46;;;;;;;6.53;3.40;;;;;;;;;;5010029;28;20227;-84
2023/10/15 04:24:21;;;;;;;5.00;2.73;;;;;;;;;;5011086;28;20254;-84
2023/10/15 04:26:50;;;;;;;4.33;3.37;;;;;;;;;;5010555;28;20701;-84
2023/10/15 04:29:22;;;;;;;3.23;2.63;;;;;;;;;;5011073;28;20224;-84
2023/10/15 04:32:00;;;;;;;3.27;3.03;;;;;;;;;;5013404;28;20234;-84
2023/10/15 04:34:30;;;;;;;2.70;2.50;;;;;;;;;;5013174;28;20311;-84
2023/10/15 04:37:07;;;;;;;3.37;3.07;;;;;;;;;;5014521;28;20223;-85
2023/10/15 04:39:51;;;;;;;3.10;2.77;;;;;;;;;;5017796;28;20668;-84
2023/10/15 04:42:28;;;;;;;3.20;2.30;;;;;;;;;;5014754;28;20196;-85
2023/10/15 04:44:59;;;;;;;4.20;3.17;;;;;;;;;;5013181;28;20227;-84
2023/10/15 04:47:41;;;;;;;3.20;3.00;;;;;;;;;;5014050;28;20233;-84
2023/10/15 04:50:15;;;;;;;11.73;3.27;;;;;;;;;;5013010;28;20623;-84
2023/10/15 04:52:49;;;;;;;7.53;3.03;;;;;;;;;;5014567;28;20214;-86
2023/10/15 04:55:26;;;;;;;5.10;3.60;;;;;;;;;;5001818;28;20219;-84
2023/10/15 04:57:55;;;;;;;7.47;3.60;;;;;;;;;;5035182;28;20200;-86
2023/10/15 05:00:29;;;;;;;4.27;3.47;;;;;;;;;;5035574;28;20266;-85
2023/10/15 05:02:58;;;;;;;4.80;3.50;;;;;;;;;;5036883;28;20240;-85
2023/10/15 05:05:28;;;;;;;5.13;3.43;;;;;;;;;;4997089;28;20336;-85
2023/10/15 05:07:59;;;;;;;7.03;3.10;;;;;;;;;;5014168;28;20200;-84
2023/10/15 05:10:29;;;;;;;3.90;2.73;;;;;;;;;;5013914;28;20193;-84
2023/10/15 05:12:59;;;;;;;5.37;2.97;;;;;;;;;;5013517;28;20232;-84
2023/10/15 05:15:32;;;;;;;3.33;3.13;;;;;;;;;;5013308;28;20635;-85
2023/10/15 05:18:00;;;;;;;8.27;3.57;;;;;;;;;;5012712;28;20737;-84
2023/10/15 05:20:33;;;;;;;3.40;3.20;;;;;;;;;;5012450;28;20252;-84
2023/10/15 05:23:09;;;;;;;3.88;3.58;;;;;;;;;;5013877;28;20216;-85
2023/10/15 05:25:40;;;;;;;3.13;2.90;;;;;;;;;;5014014;28;20225;-86
2023/10/15 05:28:14;;;;;;;4.40;4.00;;;;;;;;;;5013313;28;20211;-84
2023/10/15 05:30:45;;;;;;;8.20;3.47;;;;;;;;;;4999074;28;20688;-86
2023/10/15 05:33:17;;;;;;;3.85;3.53;;;;;;;;;;4999894;28;20769;-85
2023/10/15 05:35:49;;;;;;;6.93;4.15;;;;;;;;;;5012104;28;20228;-85
2023/10/15 05:38:18;;;;;;;4.72;3.70;;;;;;;;;;5005673;28;20747;-86
2023/10/15 05:40:47;;;;;;;5.55;4.30;;;;;;;;;;4995045;28;20202;-86
2023/10/15 05:43:17;;;;;;;7.20;3.92;;;;;;;;;;4993874;28;20671;-85
2023/10/15 05:45:48;;;;;;;6.65;4.47;;;;;;;;;;4993963;28;20229;-85
2023/10/15 05:48:21;;;;;;;5.00;4.13;;;;;;;;;;4994495;28;20746;-85
2023/10/15 05:50:53;;;;;;;11.35;4.47;;;;;;;;;;4994573;28;20532;-85
2023/10/15 05:53:28;;;;;;;10.93;5.28;;;;;;;;;;4994749;28;20201;-86
2023/10/15 05:56:05;;;;;;;12.10;4.90;;;;;;;;;;4994116;28;20206;-86
2023/10/15 05:58:34;;;;;;;7.22;4.80;;;;;;;;;;4995074;28;20285;-87
2023/10/15 06:04:03;;;;;;;7.53;5.90;;;;;;;;;;5021753;23;20237;-85
2023/10/15 06:06:44;;;;;;;8.38;4.95;;;;;;;;;;4995026;28;20221;-86
2023/10/15 06:09:17;;;;;;;7.97;5.72;;;;;;;;;;4996410;28;20655;-85
2023/10/15 06:14:34;;;;;;;8.88;5.50;;;;;;;;;;4999081;28;20653;-87
2023/10/15 06:17:13;;;;;;;10.93;5.60;;;;;;;;;;5003529;28;20194;-85
2023/10/15 06:19:44;;;;;;;8.10;5.50;;;;;;;;;;5005754;28;20217;-84
2023/10/15 06:22:19;;;;;;;11.55;5.63;;;;;;;;;;5020735;28;20204;-86
2023/10/15 06:24:50;;;;;;;6.90;5.35;;;;;;;;;;5018809;28;20243;-85
2023/10/15 06:27:21;;;;;;;6.35;5.40;;;;;;;;;;5013788;28;20251;-84
2023/10/15 06:29:48;;;;;;;8.00;5.53;;;;;;;;;;5015758;28;20529;-84
2023/10/15 06:32:18;;;;;;;9.10;6.38;;;;;;;;;;5018428;28;20209;-85
2023/10/15 06:34:47;;;;;;;5.80;5.25;;;;;;;;;;5017419;28;20192;-86
2023/10/15 06:37:16;;;;;;;9.20;5.40;;;;;;;;;;5018918;28;20193;-86
2023/10/15 06:39:57;;;;;;;6.32;5.72;;;;;;;;;;5016885;28;20518;-84
2023/10/15 06:42:25;;;;;;;6.03;5.28;;;;;;;;;;5015316;28;20204;-86
2023/10/15 06:44:58;;;;;;;6.90;5.07;;;;;;;;;;4993294;28;20734;-84
2023/10/15 06:47:31;;;;;;;8.68;6.03;;;;;;;;;;4998905;28;20202;-85
2023/10/15 06:49:59;;;;;;;8.15;5.28;;;;;;;;;;5001196;28;20276;-85
2023/10/15 06:52:27;;;;;;;8.95;5.47;;;;;;;;;;5000783;28;20213;-87
2023/10/15 06:54:59;;;;;;;6.85;5.97;;;;;;;;;;4997060;28;20201;-84
2023/10/15 06:57:28;;;;;;;10.30;6.00;;;;;;;;;;4995772;28;20201;-86
2023/10/15 06:59:56;;;;;;;6.53;6.03;;;;;;;;;;4992632;28;20662;-86
2023/10/15 07:02:28;;;;;;;10.18;5.43;;;;;;;;;;4994860;28;20339;-85
2023/10/15 07:07:31;;;;;;;9.07;6.70;;;;;;;;;;4981701;28;20991;-83
2023/10/15 07:10:00;;;;;;;10.18;6.72;;;;;;;;;;4992183;28;20193;-85
2023/10/15 07:12:30;;;;;;;10.25;6.00;;;;;;;;;;4992290;28;20205;-84
2023/10/15 07:15:02;;;;;;;8.27;6.55;;;;;;;;;;4974690;28;20189;-86
2023/10/15 07:17:29;;;;;;;8.18;5.70;;;;;;;;;;4992821;28;20215;-84
2023/10/15 07:20:00;;;;;;;9.30;6.25;;;;;;;;;;4990874;28;20444;-86
2023/10/15 07:22:33;;;;;;;7.63;5.55;;;;;;;;;;4993420;28;20236;-84
2023/10/15 07:25:08;;;;;;;5.78;5.13;;;;;;;;;;4963813;28;20233;-86
2023/10/15 07:27:41;;;;;;;6.32;5.78;;;;;;;;;;4976108;28;20202;-85
2023/10/15 07:30:20;;;;;;;8.90;5.55;;;;;;;;;;4972219;28;20206;-85
2023/10/15 07:32:52;;;;;;;7.72;5.65;;;;;;;;;;4974630;28;20209;-86
2023/10/15 07:35:22;;;;;;;6.43;5.60;;;;;;;;;;4982173;28;20218;-86
2023/10/15 07:37:56;;;;;;;6.95;5.70;;;;;;;;;;4986128;28;20206;-82
2023/10/15 07:40:26;;;;;;;5.80;5.18;;;;;;;;;;4984430;28;20222;-86
2023/10/15 07:42:59;;;;;;;5.00;4.70;;;;;;;;;;4981883;28;20233;-86
2023/10/15 07:45:29;;;;;;;6.10;4.35;;;;;;;;;;4986301;28;20308;-85
2023/10/15 07:47:59;;;;;;;6.32;5.18;;;;;;;;;;4981086;28;20213;-86
2023/10/15 07:50:29;;;;;;;4.65;4.15;;;;;;;;;;4976936;28;20210;-86
2023/10/15 07:53:00;;;;;;;5.07;4.63;;;;;;;;;;4980485;28;20708;-84
2023/10/15 07:55:31;;;;;;;6.43;4.57;;;;;;;;;;4970340;28;20206;-86
2023/10/15 07:58:04;;;;;;;5.25;4.63;;;;;;;;;;4976024;28;20265;-86
2023/10/15 08:00:34;;;;;;;6.88;4.97;;;;;;;;;;4977710;28;20237;-85
2023/10/15 08:03:07;;;;;;;8.63;5.95;;;;;;;;;;4950180;28;20274;-86
2023/10/15 08:05:36;;;;;;;5.00;4.55;;;;;;;;;;4951066;28;20227;-85
2023/10/15 08:08:09;;;;;;;7.55;4.55;;;;;;;;;;4981610;28;20221;-84
2023/10/15 08:10:38;;;;;;;7.95;4.78;;;;;;;;;;4985429;28;20385;-86
2023/10/15 08:13:07;;;;;;;7.05;4.75;;;;;;;;;;4999575;28;20205;-87
2023/10/15 08:15:38;;;;;;;9.10;5.57;;;;;;;;;;4977350;28;20221;-85
2023/10/15 08:18:07;;;;;;;6.20;5.20;;;;;;;;;;4975179;28;20222;-85
2023/10/15 08:20:40;;;;;;;11.77;5.68;;;;;;;;;;4975526;28;20198;-84
2023/10/15 08:23:13;;;;;;;10.10;6.00;;;;;;;;;;4975501;28;20194;-84
2023/10/15 08:25:45;;;;;;;11.65;5.53;;;;;;;;;;4973729;28;20645;-84
2023/10/15 08:28:15;;;;;;;6.45;5.53;;;;;;;;;;4975287;28;20523;-86
2023/10/15 08:30:44;;;;;;;13.13;7.65;;;;;;;;;;4974662;28;20206;-84
2023/10/15 08:33:13;;;;;;;15.55;6.40;;;;;;;;;;4975086;28;20288;-85
2023/10/15 08:35:42;;;;;;;18.70;5.80;;;;;;;;;;4975161;28;20194;-86
2023/10/15 08:38:27;;;;;;;6.28;5.60;;;;;;;;;;4975185;28;20194;-86
2023/10/15 08:40:56;;;;;;;8.32;5.68;;;;;;;;;;4936500;29;20204;-85
2023/10/15 08:43:27;;;;;;;9.43;5.55;;;;;;;;;;4936628;29;20243;-85
2023/10/15 08:45:58;;;;;;;12.23;5.18;;;;;;;;;;4935366;29;20246;-85
2023/10/15 08:48:30;;;;;;;6.47;5.20;;;;;;;;;;4936823;29;20219;-85
2023/10/15 08:51:00;;;;;;;9.63;6.05;;;;;;;;;;4936787;29;20223;-85
2023/10/15 08:53:28;;;;;;;5.80;5.30;;;;;;;;;;4936806;29;20227;-85
2023/10/15 08:55:59;;;;;;;8.13;5.53;;;;;;;;;;4935909;29;20212;-85
2023/10/15 08:58:32;;;;;;;8.88;6.07;;;;;;;;;;4935661;29;20251;-87
2023/10/15 09:01:01;;;;;;;7.70;6.75;;;;;;;;;;4935073;29;20212;-84
2023/10/15 09:03:32;;;;;;;6.10;5.50;;;;;;;;;;4936022;29;20196;-86
2023/10/15 09:06:05;;;;;;;6.75;6.18;;;;;;;;;;4935654;29;20715;-87
2023/10/15 09:08:41;;;;;;;6.68;6.05;;;;;;;;;;4952884;29;20218;-86
2023/10/15 09:11:11;;;;;;;6.90;5.53;;;;;;;;;;4953664;29;20206;-85
2023/10/15 09:13:40;;;;;;;7.75;5.80;;;;;;;;;;4954122;29;20258;-88
2023/10/15 09:16:10;;;;;;;9.63;5.55;;;;;;;;;;4955501;29;20233;-85
2023/10/15 09:18:40;;;;;;;7.75;5.95;;;;;;;;;;4951911;28;20298;-86
2023/10/15 09:21:23;;;;;;;8.27;6.22;;;;;;;;;;4953690;29;20231;-86
2023/10/15 09:23:52;;;;;;;5.72;5.20;;;;;;;;;;4953896;29;20323;-86
2023/10/15 09:26:23;;;;;;;6.30;5.07;;;;;;;;;;4945063;29;20246;-86
2023/10/15 09:28:51;;;;;;;10.98;5.43;;;;;;;;;;4944499;28;20233;-86
2023/10/15 09:31:20;;;;;;;7.28;5.22;;;;;;;;;;4963001;28;20231;-85
2023/10/15 09:33:54;;;;;;;5.72;5.05;;;;;;;;;;4958149;28;20218;-86
2023/10/15 09:36:24;;;;;;;5.68;5.18;;;;;;;;;;4976106;28;20225;-87
2023/10/15 09:38:59;;;;;;;6.72;4.47;;;;;;;;;;4975184;28;20222;-86
2023/10/15 09:41:33;;;;;;;8.88;4.80;;;;;;;;;;4973696;28;20222;-86
2023/10/15 09:44:09;;;;;;;4.28;3.95;;;;;;;;;;4975668;28;20285;-86
2023/10/15 09:46:40;;;;;;;5.45;4.03;;;;;;;;;;4979885;28;20234;-87
2023/10/15 09:49:10;;;;;;;5.70;4.45;;;;;;;;;;4984943;28;20229;-85
2023/10/15 09:51:40;;;;;;;5.63;5.22;;;;;;;;;;4976472;28;20321;-87
2023/10/15 09:54:14;;;;;;;8.55;4.80;;;;;;;;;;4973751;28;20253;-88
2023/10/15 09:56:45;;;;;;;5.45;4.50;;;;;;;;;;4948363;28;20274;-85
2023/10/15 09:59:15;;;;;;;10.07;4.65;;;;;;;;;;4957703;28;20842;-85
2023/10/15 10:01:49;;;;;;;9.00;4.45;;;;;;;;;;4942035;28;20227;-87
2023/10/15 10:04:23;;;;;;;13.07;4.03;;;;;;;;;;4949606;28;20955;-86
2023/10/15 10:07:09;;;;;;;4.18;3.75;;;;;;;;;;4966452;28;20241;-86
2023/10/15 10:09:51;;;;;;;3.58;3.15;;;;;;;;;;4953353;29;20740;-87
2023/10/15 10:12:29;;;;;;;4.95;3.80;;;;;;;;;;4936795;28;20301;-86
2023/10/15 10:15:08;;;;;;;4.88;3.72;;;;;;;;;;4975077;28;20218;-87
2023/10/15 10:17:40;;;;;;;4.95;3.15;;;;;;;;;;4980339;28;20233;-84
2023/10/15 10:20:12;;;;;;;3.22;3.03;;;;;;;;;;4988258;28;20242;-87
2023/10/15 10:22:43;;;;;;;10.25;3.75;;;;;;;;;;4991698;28;20222;-86
2023/10/15 10:25:31;;;;;;;3.28;3.03;;;;;;;;;;4991746;28;20226;-85
2023/10/15 10:28:09;;;;;;;6.13;3.30;;;;;;;;;;4974962;28;20231;-86
2023/10/15 10:30:41;;;;;;;4.85;3.17;;;;;;;;;;4970930;29;20237;-85
2023/10/15 10:33:09;;;;;;;4.47;3.40;;;;;;;;;;4967645;29;20227;-86
2023/10/15 10:35:45;;;;;;;3.75;3.53;;;;;;;;;;4970973;28;20278;-85
2023/10/15 10:38:19;;;;;;;3.25;2.80;;;;;;;;;;4977293;28;20209;-87
2023/10/15 10:40:51;;;;;;;2.78;2.53;;;;;;;;;;4976195;29;20234;-86
2023/10/15 10:43:26;;;;;;;3.47;2.58;;;;;;;;;;4978349;28;20187;-86
2023/10/15 10:45:57;;;;;;;6.85;2.22;;;;;;;;;;4975893;29;20222;-86
2023/10/15 10:48:25;;;;;;;3.45;2.40;;;;;;;;;;4977327;29;20213;-85
2023/10/15 10:51:30;;;;;;;5.22;3.00;;;;;;;;;;4971404;29;20454;-85
2023/10/15 10:54:16;;;;;;;4.35;2.65;;;;;;;;;;4895947;29;20207;-86
2023/10/15 10:56:58;;;;;;;2.60;2.40;;;;;;;;;;4951561;29;20210;-86
2023/10/15 10:59:28;;;;;;;2.40;2.30;;;;;;;;;;4954691;29;20205;-85
2023/10/15 11:01:56;;;;;;;2.63;2.17;;;;;;;;;;4957947;29;20222;-86
2023/10/15 11:04:24;;;;;;;6.25;2.45;;;;;;;;;;4958093;29;20203;-85
2023/10/15 11:06:55;;;;;;;4.88;2.70;;;;;;;;;;4965067;29;20250;-85
2023/10/15 11:09:23;;;;;;;3.00;2.80;;;;;;;;;;4972411;29;20242;-85
2023/10/15 11:11:51;;;;;;;2.38;2.28;;;;;;;;;;4974111;29;20205;-85
2023/10/15 11:14:30;;;;;;;2.55;2.33;;;;;;;;;;4977009;28;20211;-85
2023/10/15 11:17:00;;;;;;;2.70;2.50;;;;;;;;;;4965357;29;20206;-85
2023/10/15 11:19:30;;;;;;;2.30;2.20;;;;;;;;;;4961125;29;20206;-85
2023/10/15 11:22:01;;;;;;;2.85;2.65;;;;;;;;;;4961375;29;20214;-85
2023/10/15 11:24:37;;;;;;;3.70;2.60;;;;;;;;;;4959934;29;20210;-85
2023/10/15 11:27:06;;;;;;;4.82;2.65;;;;;;;;;;4961435;29;20245;-85
2023/10/15 11:29:40;;;;;;;8.60;2.92;;;;;;;;;;4960670;29;20247;-86
2023/10/15 11:32:11;;;;;;;6.55;2.00;;;;;;;;;;4959331;29;20199;-86
2023/10/15 11:34:41;;;;;;;4.35;2.58;;;;;;;;;;4955043;29;20237;-86
2023/10/15 11:37:16;;;;;;;3.67;2.78;;;;;;;;;;4954914;29;20195;-85
2023/10/15 11:39:48;;;;;;;3.45;2.92;;;;;;;;;;4955155;28;20261;-87
2023/10/15 11:42:24;;;;;;;2.90;2.70;;;;;;;;;;4960006;29;20233;-86
2023/10/15 11:44:56;;;;;;;2.53;2.42;;;;;;;;;;4961454;29;20198;-86
2023/10/15 11:47:32;;;;;;;3.53;2.80;;;;;;;;;;4958488;29;20224;-88
2023/10/15 11:50:06;;;;;;;2.65;2.45;;;;;;;;;;4960225;29;20198;-85
2023/10/15 11:52:42;;;;;;;3.72;2.67;;;;;;;;;;4958865;29;20197;-86
2023/10/15 11:55:19;;;;;;;3.25;2.65;;;;;;;;;;4959080;29;20199;-86
2023/10/15 11:57:50;;;;;;;2.92;2.72;;;;;;;;;;4959632;29;20242;-85
2023/10/15 12:00:31;;;;;;;3.08;2.83;;;;;;;;;;4958299;29;20210;-87
2023/10/15 12:03:05;;;;;;;3.80;3.30;;;;;;;;;;4957471;29;20608;-86
2023/10/15 12:05:35;;;;;;;4.03;3.20;;;;;;;;;;4958939;29;20201;-85
2023/10/15 12:08:04;;;;;;;6.57;2.60;;;;;;;;;;4958327;29;20279;-85
2023/10/15 12:10:34;;;;;;;8.35;2.60;;;;;;;;;;4958251;29;20265;-86
2023/10/15 12:13:03;;;;;;;5.18;2.58;;;;;;;;;;4959065;29;20660;-86
2023/10/15 12:15:34;;;;;;;2.47;2.35;;;;;;;;;;4957455;29;20203;-86
2023/10/15 12:18:04;;;;;;;2.97;2.67;;;;;;;;;;4958053;29;20207;-85
2023/10/15 12:20:39;;;;;;;4.25;3.15;;;;;;;;;;4961408;29;20206;-85
2023/10/15 12:23:11;;;;;;;5.18;3.05;;;;;;;;;;4958140;29;20273;-86
2023/10/15 12:25:39;;;;;;;2.78;2.45;;;;;;;;;;4958298;29;20274;-85
2023/10/15 12:28:09;;;;;;;3.40;2.72;;;;;;;;;;4951740;29;20325;-86
2023/10/15 12:30:36;;;;;;;8.52;2.97;;;;;;;;;;4960054;29;20676;-86
2023/10/15 12:33:07;;;;;;;6.03;2.75;;;;;;;;;;4959295;29;20223;-86
2023/10/15 12:35:35;;;;;;;4.13;3.08;;;;;;;;;;4958733;29;20215;-85
2023/10/15 12:38:05;;;;;;;3.72;2.88;;;;;;;;;;4961449;29;20207;-86
2023/10/15 12:40:33;;;;;;;6.15;2.78;;;;;;;;;;4959234;29;20591;-86
2023/10/15 12:43:08;;;;;;;4.28;2.50;;;;;;;;;;4957779;29;20561;-86
2023/10/15 12:45:37;;;;;;;8.40;3.10;;;;;;;;;;4957873;29;20293;-86
2023/10/15 12:48:08;;;;;;;3.58;2.88;;;;;;;;;;4958512;29;20226;-87
2023/10/15 12:50:39;;;;;;;2.78;2.47;;;;;;;;;;4957087;29;20266;-86
2023/10/15 12:53:09;;;;;;;2.85;2.60;;;;;;;;;;4957161;28;20207;-85
2023/10/15 12:55:39;;;;;;;3.72;3.10;;;;;;;;;;4959266;29;20230;-86
2023/10/15 12:58:11;;;;;;;8.88;2.78;;;;;;;;;;4957460;29;20250;-86
2023/10/15 13:00:43;;;;;;;3.53;2.60;;;;;;;;;;4962558;29;20202;-85
2023/10/15 13:03:12;;;;;;;5.63;2.75;;;;;;;;;;4956704;29;20222;-85
2023/10/15 13:05:42;;;;;;;2.70;2.60;;;;;;;;;;4960365;29;20250;-85
2023/10/15 13:08:11;;;;;;;5.53;2.97;;;;;;;;;;4949647;29;20227;-85
2023/10/15 13:10:40;;;;;;;5.07;2.63;;;;;;;;;;4952736;29;20230;-83
2023/10/15 13:13:11;;;;;;;3.45;1.77;;;;;;;;;;4940972;29;20211;-84
2023/10/15 13:15:41;;;;;;;3.90;2.67;;;;;;;;;;4955043;29;20254;-83
2023/10/15 13:18:14;;;;;;;2.75;2.38;;;;;;;;;;4955316;29;20238;-84
2023/10/15 13:20:43;;;;;;;2.97;2.78;;;;;;;;;;4954834;29;20207;-84
2023/10/15 13:23:11;;;;;;;7.15;2.78;;;;;;;;;;4953855;29;20209;-84
2023/10/15 13:25:41;;;;;;;2.80;2.40;;;;;;;;;;4954942;29;20263;-85
2023/10/15 13:28:12;;;;;;;2.28;2.10;;;;;;;;;;4953428;29;20245;-84
2023/10/15 13:30:41;;;;;;;3.10;2.53;;;;;;;;;;4953372;29;20476;-84
2023/10/15 13:33:13;;;;;;;3.58;3.28;;;;;;;;;;4953248;29;20195;-84
2023/10/15 13:35:46;;;;;;;5.78;3.00;;;;;;;;;;4954052;29;20734;-84
2023/10/15 13:38:16;;;;;;;3.50;3.20;;;;;;;;;;4954497;29;20198;-85
2023/10/15 13:40:44;;;;;;;3.17;2.13;;;;;;;;;;4955424;29;20205;-84
2023/10/15 13:43:15;;;;;;;8.35;2.67;;;;;;;;;;4953939;29;20214;-84
2023/10/15 13:45:43;;;;;;;4.50;2.20;;;;;;;;;;4953992;29;20195;-83
2023/10/15 13:48:15;;;;;;;2.47;2.00;;;;;;;;;;4954019;29;20383;-82
2023/10/15 13:50:44;;;;;;;2.65;2.45;;;;;;;;;;4954162;29;20203;-83
2023/10/15 13:53:13;;;;;;;4.38;2.15;;;;;;;;;;4953290;29;20202;-83
2023/10/15 13:55:41;;;;;;;2.15;2.05;;;;;;;;;;4954115;29;20230;-82
2023/10/15 13:58:11;;;;;;;4.63;2.17;;;;;;;;;;4953450;29;20206;-83
2023/10/15 14:00:41;;;;;;;6.60;2.53;;;;;;;;;;4963230;29;20250;-84
2023/10/15 14:03:09;;;;;;;4.57;2.95;;;;;;;;;;4958899;28;20231;-83
2023/10/15 14:05:38;;;;;;;6.25;3.63;;;;;;;;;;4973664;28;20191;-84
2023/10/15 14:08:07;;;;;;;4.53;2.38;;;;;;;;;;4973516;28;20239;-83
2023/10/15 14:10:35;;;;;;;3.20;2.90;;;;;;;;;;4954315;29;20203;-83
2023/10/15 14:13:10;;;;;;;5.28;2.85;;;;;;;;;;4953511;29;20202;-84
2023/10/15 14:15:37;;;;;;;5.25;3.00;;;;;;;;;;4953604;29;20675;-83
2023/10/15 14:18:08;;;;;;;4.30;3.67;;;;;;;;;;4953808;29;20725;-84
2023/10/15 14:20:37;;;;;;;2.90;2.42;;;;;;;;;;4953202;29;20640;-84
2023/10/15 14:23:06;;;;;;;5.05;2.50;;;;;;;;;;4953018;29;20209;-84
2023/10/15 14:25:35;;;;;;;5.22;2.50;;;;;;;;;;4953501;29;20195;-84
2023/10/15 14:28:08;;;;;;;2.75;2.38;;;;;;;;;;4953059;29;20230;-84
2023/10/15 14:30:38;;;;;;;2.28;2.17;;;;;;;;;;4954478;29;20206;-85
2023/10/15 14:33:05;;;;;;;6.30;3.03;;;;;;;;;;4949149;28;20286;-84
2023/10/15 14:35:36;;;;;;;3.28;2.70;;;;;;;;;;4950875;29;20317;-84
2023/10/15 14:38:03;;;;;;;2.83;2.60;;;;;;;;;;4952353;29;20258;-85
2023/10/15 14:40:37;;;;;;;3.25;2.95;;;;;;;;;;4952342;29;20241;-84
2023/10/15 14:43:07;;;;;;;3.78;2.85;;;;;;;;;;4952073;29;20250;-83
2023/10/15 14:45:39;;;;;;;3.90;2.88;;;;;;;;;;4952382;29;20227;-83
2023/10/15 14:48:10;;;;;;;2.60;2.50;;;;;;;;;;4952080;29;20775;-84
2023/10/15 14:50:40;;;;;;;5.95;2.88;;;;;;;;;;4952509;29;20310;-84
2023/10/15 14:53:14;;;;;;;4.72;2.58;;;;;;;;;;4952505;29;20325;-84
2023/10/15 14:55:44;;;;;;;3.17;2.88;;;;;;;;;;4955068;29;20703;-84
2023/10/15 14:58:13;;;;;;;7.20;2.85;;;;;;;;;;4953650;28;20650;-85
2023/10/15 15:00:47;;;;;;;2.30;2.17;;;;;;;;;;4954752;29;20222;-86
2023/10/15 15:03:20;;;;;;;4.28;3.20;;;;;;;;;;4953866;29;20233;-88
2023/10/15 15:05:48;;;;;;;5.22;2.63;;;;;;;;;;4954260;29;20451;-86
2023/10/15 15:08:22;;;;;;;5.55;2.80;;;;;;;;;;4959990;29;20226;-87
2023/10/15 15:10:51;;;;;;;2.75;2.08;;;;;;;;;;4965710;29;20209;-85
2023/10/15 15:13:23;;;;;;;7.13;2.30;;;;;;;;;;4959664;29;20282;-86
2023/10/15 15:15:52;;;;;;;2.35;2.13;;;;;;;;;;4953858;28;20207;-86
2023/10/15 15:18:23;;;;;;;7.47;2.28;;;;;;;;;;4955117;29;20225;-86
2023/10/15 15:21:01;;;;;;;4.22;2.70;;;;;;;;;;4955197;29;20213;-85
2023/10/15 15:23:29;;;;;;;3.05;2.20;;;;;;;;;;4955546;29;20198;-86